Bea Schulte — VRGA2 — position and weather

sailwx.info

Track history (hours):
 
Tides and Currents Weather Stations Pressure Air Temp Water Temp Dewpoint Dewpoint Depression Visibility Wind Speed Wind Dir Waves Ship Positions

Bea Schulte

Last reported at 2017-Aug-18 01:39 UTC. Time now 2017-Aug-20 15:28 UTC.
Position S 24°03' W 046°07'.

Length 264 m; draft 12.4 m.

Type: Ship (hazmat cat A). MMSI: 477639500.

Date/timePositionNaut miles runAvg speedWind from/ knotsBaromVisibWave heightAir tempDewpointWater temp
2017-Aug-18 01:39S 24°03' W 046°07'319.9
2017-Aug-18 01:29S 24°04' W 046°10'817.5
2017-Aug-18 01:00S 24°03' W 046°19'3 6.9
2017-Aug-18 00:30S 23°60' W 046°20'2 4.8
2017-Aug-18 00:00S 23°58' W 046°18'0 0.1
2017-Aug-17 21:33S 23°58' W 046°17'0 0.0
2017-Aug-17 20:03S 23°58' W 046°17'0 0.0
2017-Aug-17 19:54S 23°58' W 046°17'0 0.0
2017-Aug-17 19:27S 23°58' W 046°17'0 0.0
2017-Aug-17 19:00S 23°58' W 046°17'0 0.0
2017-Aug-17 17:36S 23°58' W 046°17'0 0.0
2017-Aug-17 17:30S 23°58' W 046°17'0 0.0
2017-Aug-17 17:00S 23°58' W 046°17'0 0.0
2017-Aug-17 16:30S 23°58' W 046°17'0 0.0
2017-Aug-17 15:57S 23°58' W 046°17'0 0.0
2017-Aug-17 13:33S 23°58' W 046°17'0 0.0
2017-Aug-17 13:09S 23°58' W 046°17'0 0.1
2017-Aug-17 13:00S 23°58' W 046°17'0 0.0
2017-Aug-17 11:45S 23°58' W 046°17'0 0.0
2017-Aug-17 11:18S 23°58' W 046°17'0 0.0
2017-Aug-17 11:00S 23°58' W 046°18'0 0.0
2017-Aug-17 10:27S 23°58' W 046°17'0 0.0
2017-Aug-17 10:00S 23°58' W 046°17'0 0.0
2017-Aug-17 09:30S 23°58' W 046°17'0 0.0
2017-Aug-17 09:00S 23°58' W 046°17'0 0.0
2017-Aug-17 07:54S 23°58' W 046°17'1 2.5
2017-Aug-17 07:24S 23°59' W 046°18'3 7.2
2017-Aug-17 07:00S 24°01' W 046°20'5 9.6
2017-Aug-17 06:30S 24°05' W 046°22'5 9.4
2017-Aug-17 06:00S 24°09' W 046°21'1 1.8
2017-Aug-17 05:26S 24°10' W 046°19'0 0.0
2017-Aug-17 04:59S 24°10' W 046°19'0 0.0
2017-Aug-17 04:29S 24°10' W 046°19'0 0.0
2017-Aug-17 03:59S 24°10' W 046°19'0 0.0
2017-Aug-17 03:29S 24°10' W 046°19'0 0.0
2017-Aug-17 02:59S 24°10' W 046°19'0 0.0
2017-Aug-17 02:29S 24°10' W 046°19'0 0.0
2017-Aug-17 01:59S 24°10' W 046°19'0 0.0
2017-Aug-17 01:29S 24°10' W 046°19'0 0.0
2017-Aug-17 00:59S 24°10' W 046°19'0 0.0
2017-Aug-17 00:26S 24°10' W 046°19'0 0.0
2017-Aug-16 23:59S 24°10' W 046°19'0 0.0
2017-Aug-16 23:23S 24°10' W 046°19'0 0.0
2017-Aug-16 22:59S 24°10' W 046°19'0 0.0
2017-Aug-16 22:29S 24°10' W 046°19'0 0.0
2017-Aug-16 21:59S 24°10' W 046°19'0 0.0
2017-Aug-16 21:29S 24°10' W 046°19'0 0.0
2017-Aug-16 20:47S 24°10' W 046°19'0 0.0
2017-Aug-16 20:29S 24°10' W 046°19'0 0.0
2017-Aug-16 19:59S 24°10' W 046°19'0 0.1
2017-Aug-16 19:29S 24°10' W 046°19'0 0.0
2017-Aug-16 18:59S 24°10' W 046°19'0 0.1
2017-Aug-16 18:26S 24°10' W 046°19'0 0.0
2017-Aug-16 17:59S 24°10' W 046°19'0 0.0
2017-Aug-16 17:29S 24°10' W 046°19'0 0.0
2017-Aug-16 16:59S 24°10' W 046°19'0 0.0
2017-Aug-16 16:29S 24°10' W 046°19'0 0.0
2017-Aug-16 15:59S 24°10' W 046°19'0 0.0
2017-Aug-16 15:29S 24°10' W 046°19'0 0.0
2017-Aug-16 14:59S 24°10' W 046°19'0 0.1
2017-Aug-16 14:29S 24°10' W 046°19'0 0.0
2017-Aug-16 13:59S 24°10' W 046°19'0 0.1
2017-Aug-16 13:29S 24°10' W 046°19'0 0.1
2017-Aug-16 12:59S 24°10' W 046°19'0 0.0
2017-Aug-16 12:29S 24°10' W 046°19'0 0.0
2017-Aug-16 11:59S 24°10' W 046°19'0 0.0
2017-Aug-16 11:29S 24°10' W 046°19'0 0.0
2017-Aug-16 10:59S 24°10' W 046°19'0 0.0
2017-Aug-16 10:26S 24°10' W 046°19'0 0.1
2017-Aug-16 09:59S 24°10' W 046°19'0 0.1
2017-Aug-16 09:29S 24°10' W 046°19'0 0.0
2017-Aug-16 08:59S 24°10' W 046°19'0 0.0
2017-Aug-16 08:29S 24°10' W 046°19'0 0.0
2017-Aug-16 07:59S 24°10' W 046°19'0 0.0
2017-Aug-16 07:29S 24°10' W 046°19'0 0.0
2017-Aug-16 06:59S 24°10' W 046°19'0 0.0
2017-Aug-16 06:29S 24°10' W 046°19'0 0.0
2017-Aug-16 05:59S 24°10' W 046°19'0 0.0
2017-Aug-16 05:29S 24°10' W 046°19'0 0.0
2017-Aug-16 04:56S 24°10' W 046°19'0 0.1
2017-Aug-16 04:23S 24°10' W 046°19'0 0.1
2017-Aug-16 03:59S 24°10' W 046°19'0 0.0
2017-Aug-16 03:29S 24°10' W 046°19'0 0.0
2017-Aug-16 02:59S 24°10' W 046°19'0 0.0
2017-Aug-16 02:29S 24°10' W 046°19'0 0.0
2017-Aug-16 01:56S 24°10' W 046°19'0 0.0
2017-Aug-16 01:26S 24°10' W 046°19'0 0.0
2017-Aug-16 00:59S 24°10' W 046°19'0 0.0
2017-Aug-16 00:29S 24°10' W 046°19'0 0.2
2017-Aug-15 23:57S 24°10' W 046°19'2 3.7
2017-Aug-15 23:30S 24°09' W 046°21'611.1
2017-Aug-15 23:00S 24°12' W 046°25'612.7
2017-Aug-15 22:30S 24°18' W 046°28'612.7
2017-Aug-15 22:00S 24°24' W 046°31'612.7
2017-Aug-15 21:30S 24°30' W 046°34'612.3
2017-Aug-15 21:00S 24°35' W 046°38'612.7
2017-Aug-15 20:30S 24°39' W 046°43'812.7
2017-Aug-15 19:54S 24°45' W 046°49'  
Track history (hours):
 
Tides and Currents Weather Stations Pressure Air Temp Water Temp Dewpoint Dewpoint Depression Visibility Wind Speed Wind Dir Waves Ship Positions

Bea Schulte

Last reported at 2017-Aug-18 01:39 UTC. Time now 2017-Aug-20 15:28 UTC.
Position S 24°03' W 046°07'.

Length 264 m; draft 12.4 m.

Type: Ship (hazmat cat A). MMSI: 477639500.

Date/timePositionNaut miles runAvg speedWind from/ knotsBaromVisibWave heightAir tempDewpointWater temp
2017-Aug-18 01:39S 24°03' W 046°07'319.9
2017-Aug-18 01:29S 24°04' W 046°10'817.5
2017-Aug-18 01:00S 24°03' W 046°19'3 6.9
2017-Aug-18 00:30S 23°60' W 046°20'2 4.8
2017-Aug-18 00:00S 23°58' W 046°18'0 0.1
2017-Aug-17 21:33S 23°58' W 046°17'0 0.0
2017-Aug-17 20:03S 23°58' W 046°17'0 0.0
2017-Aug-17 19:54S 23°58' W 046°17'0 0.0
2017-Aug-17 19:27S 23°58' W 046°17'0 0.0
2017-Aug-17 19:00S 23°58' W 046°17'0 0.0
2017-Aug-17 17:36S 23°58' W 046°17'0 0.0
2017-Aug-17 17:30S 23°58' W 046°17'0 0.0
2017-Aug-17 17:00S 23°58' W 046°17'0 0.0
2017-Aug-17 16:30S 23°58' W 046°17'0 0.0
2017-Aug-17 15:57S 23°58' W 046°17'0 0.0
2017-Aug-17 13:33S 23°58' W 046°17'0 0.0
2017-Aug-17 13:09S 23°58' W 046°17'0 0.1
2017-Aug-17 13:00S 23°58' W 046°17'0 0.0
2017-Aug-17 11:45S 23°58' W 046°17'0 0.0
2017-Aug-17 11:18S 23°58' W 046°17'0 0.0
2017-Aug-17 11:00S 23°58' W 046°18'0 0.0
2017-Aug-17 10:27S 23°58' W 046°17'0 0.0
2017-Aug-17 10:00S 23°58' W 046°17'0 0.0
2017-Aug-17 09:30S 23°58' W 046°17'0 0.0
2017-Aug-17 09:00S 23°58' W 046°17'0 0.0
2017-Aug-17 07:54S 23°58' W 046°17'1 2.5
2017-Aug-17 07:24S 23°59' W 046°18'3 7.2
2017-Aug-17 07:00S 24°01' W 046°20'5 9.6
2017-Aug-17 06:30S 24°05' W 046°22'5 9.4
2017-Aug-17 06:00S 24°09' W 046°21'1 1.8
2017-Aug-17 05:26S 24°10' W 046°19'0 0.0
2017-Aug-17 04:59S 24°10' W 046°19'0 0.0
2017-Aug-17 04:29S 24°10' W 046°19'0 0.0
2017-Aug-17 03:59S 24°10' W 046°19'0 0.0
2017-Aug-17 03:29S 24°10' W 046°19'0 0.0
2017-Aug-17 02:59S 24°10' W 046°19'0 0.0
2017-Aug-17 02:29S 24°10' W 046°19'0 0.0
2017-Aug-17 01:59S 24°10' W 046°19'0 0.0
2017-Aug-17 01:29S 24°10' W 046°19'0 0.0
2017-Aug-17 00:59S 24°10' W 046°19'0 0.0
2017-Aug-17 00:26S 24°10' W 046°19'0 0.0
2017-Aug-16 23:59S 24°10' W 046°19'0 0.0
2017-Aug-16 23:23S 24°10' W 046°19'0 0.0
2017-Aug-16 22:59S 24°10' W 046°19'0 0.0
2017-Aug-16 22:29S 24°10' W 046°19'0 0.0
2017-Aug-16 21:59S 24°10' W 046°19'0 0.0
2017-Aug-16 21:29S 24°10' W 046°19'0 0.0
2017-Aug-16 20:47S 24°10' W 046°19'0 0.0
2017-Aug-16 20:29S 24°10' W 046°19'0 0.0
2017-Aug-16 19:59S 24°10' W 046°19'0 0.1
2017-Aug-16 19:29S 24°10' W 046°19'0 0.0
2017-Aug-16 18:59S 24°10' W 046°19'0 0.1
2017-Aug-16 18:26S 24°10' W 046°19'0 0.0
2017-Aug-16 17:59S 24°10' W 046°19'0 0.0
2017-Aug-16 17:29S 24°10' W 046°19'0 0.0
2017-Aug-16 16:59S 24°10' W 046°19'0 0.0
2017-Aug-16 16:29S 24°10' W 046°19'0 0.0
2017-Aug-16 15:59S 24°10' W 046°19'0 0.0
2017-Aug-16 15:29S 24°10' W 046°19'0 0.0
2017-Aug-16 14:59S 24°10' W 046°19'0 0.1
2017-Aug-16 14:29S 24°10' W 046°19'0 0.0
2017-Aug-16 13:59S 24°10' W 046°19'0 0.1
2017-Aug-16 13:29S 24°10' W 046°19'0 0.1
2017-Aug-16 12:59S 24°10' W 046°19'0 0.0
2017-Aug-16 12:29S 24°10' W 046°19'0 0.0
2017-Aug-16 11:59S 24°10' W 046°19'0 0.0
2017-Aug-16 11:29S 24°10' W 046°19'0 0.0
2017-Aug-16 10:59S 24°10' W 046°19'0 0.0
2017-Aug-16 10:26S 24°10' W 046°19'0 0.1
2017-Aug-16 09:59S 24°10' W 046°19'0 0.1
2017-Aug-16 09:29S 24°10' W 046°19'0 0.0
2017-Aug-16 08:59S 24°10' W 046°19'0 0.0
2017-Aug-16 08:29S 24°10' W 046°19'0 0.0
2017-Aug-16 07:59S 24°10' W 046°19'0 0.0
2017-Aug-16 07:29S 24°10' W 046°19'0 0.0
2017-Aug-16 06:59S 24°10' W 046°19'0 0.0
2017-Aug-16 06:29S 24°10' W 046°19'0 0.0
2017-Aug-16 05:59S 24°10' W 046°19'0 0.0
2017-Aug-16 05:29S 24°10' W 046°19'0 0.0
2017-Aug-16 04:56S 24°10' W 046°19'0 0.1
2017-Aug-16 04:23S 24°10' W 046°19'0 0.1
2017-Aug-16 03:59S 24°10' W 046°19'0 0.0
2017-Aug-16 03:29S 24°10' W 046°19'0 0.0
2017-Aug-16 02:59S 24°10' W 046°19'0 0.0
2017-Aug-16 02:29S 24°10' W 046°19'0 0.0
2017-Aug-16 01:56S 24°10' W 046°19'0 0.0
2017-Aug-16 01:26S 24°10' W 046°19'0 0.0
2017-Aug-16 00:59S 24°10' W 046°19'0 0.0
2017-Aug-16 00:29S 24°10' W 046°19'0 0.2
2017-Aug-15 23:57S 24°10' W 046°19'2 3.7
2017-Aug-15 23:30S 24°09' W 046°21'611.1
2017-Aug-15 23:00S 24°12' W 046°25'612.7
2017-Aug-15 22:30S 24°18' W 046°28'612.7
2017-Aug-15 22:00S 24°24' W 046°31'612.7
2017-Aug-15 21:30S 24°30' W 046°34'612.3
2017-Aug-15 21:00S 24°35' W 046°38'612.7
2017-Aug-15 20:30S 24°39' W 046°43'812.7
2017-Aug-15 19:54S 24°45' W 046°49'  

Dump ship's entire track history